MST,Max TemperatureF,Mean TemperatureF,Min TemperatureF,Max Dew PointF,MeanDew PointF,Min DewpointF,Max Humidity, Mean Humidity, Min Humidity, Max Sea Level PressureIn, Mean Sea Level PressureIn, Min Sea Level PressureIn, Max VisibilityMiles, Mean VisibilityMiles, Min VisibilityMiles, Max Wind SpeedMPH, Mean Wind SpeedMPH, Max Gust SpeedMPH,PrecipitationIn, CloudCover, Events, WindDirDegrees
2011-11-1,89,74,59,49,35,22,41,28,15,29.94,29.84,29.79,10,10,10,17,3,25,0.00,1,,183
2011-11-2,77,67,56,23,11,-3,21,13,5,30.20,30.11,29.96,10,10,9,25,14,32,0.00,0,,1
2011-11-3,80,66,52,26,16,9,28,18,7,30.09,29.96,29.82,10,10,10,14,4,16,0.00,2,,24
2011-11-4,76,64,51,51,37,14,86,50,14,29.81,29.72,29.61,10,10,5,29,8,37,0.07,4,Rain,285
2011-11-5,67,57,46,43,40,35,80,57,34,30.01,29.93,29.78,10,10,10,13,5,16,0.00,0,,215
2011-11-6,68,59,50,46,35,28,62,42,22,30.04,29.97,29.92,10,10,10,14,5,18,0.00,2,,314
2011-11-7,69,59,48,44,37,30,86,55,24,30.16,30.05,29.96,10,10,10,14,4,18,0.00,1,,293
2011-11-8,70,58,45,37,29,20,71,43,15,30.26,30.21,30.17,10,10,10,16,6,22,0.00,1,,6
2011-11-9,73,62,51,28,24,20,41,29,16,30.32,30.24,30.19,10,10,10,18,10,23,0.00,0,,356
2011-11-10,77,65,52,28,26,22,38,25,12,30.23,30.14,30.03,10,10,10,18,8,24,0.00,0,,21
2011-11-11,76,67,57,35,28,23,36,25,14,30.00,29.93,29.86,10,10,10,13,5,16,0.00,0,,61
2011-11-12,80,66,52,59,46,31,90,59,28,29.86,29.83,29.77,10,9,5,24,9,32,0.29,3,,115
2011-11-13,69,64,58,59,56,54,93,76,59,29.94,29.88,29.84,10,9,6,14,3,16,0.05,4,,206
2011-11-14,73,63,53,55,52,48,93,69,44,29.96,29.91,29.86,10,10,5,7,2,13,0.00,0,,186
2011-11-15,74,65,55,55,52,45,86,61,35,30.03,29.98,29.94,10,10,7,8,2,9,0.00,0,,170
2011-11-16,77,66,55,56,52,46,93,63,33,30.14,30.07,30.01,10,8,0,7,3,13,0.01,1,Fog,23
2011-11-17,79,68,56,49,44,38,67,45,23,30.09,30.00,29.90,10,10,10,8,2,12,0.00,0,,3
2011-11-18,77,65,53,61,51,44,87,59,31,29.89,29.83,29.77,10,10,10,17,8,21,0.00,2,,180
2011-11-19,71,64,56,48,42,38,84,59,33,29.88,29.84,29.80,10,10,10,14,4,17,0.00,1,,322
2011-11-20,70,62,53,51,40,32,67,50,33,29.99,29.92,29.87,10,10,10,13,4,17,0.00,2,,357
2011-11-21,70,62,54,49,46,42,72,55,37,30.22,30.08,29.95,10,10,10,14,4,17,0.00,2,,276
2011-11-22,74,62,50,45,40,36,77,52,27,30.27,30.19,30.12,10,10,10,9,3,14,0.00,0,,352
2011-11-23,77,64,51,45,39,35,63,43,23,30.10,29.99,29.90,10,10,10,13,5,16,0.00,0,,59
2011-11-24,72,62,52,53,45,37,80,56,32,30.00,29.93,29.88,10,10,10,18,8,22,0.00,2,,310
2011-11-25,75,62,48,43,39,37,71,48,25,30.19,30.09,30.01,10,10,10,12,4,14,0.00,0,,266
2011-11-26,81,66,50,40,28,18,66,38,10,30.29,30.25,30.18,10,10,10,20,8,25,0.00,0,,356
2011-11-27,79,66,52,32,20,14,29,20,11,30.37,30.29,30.23,10,10,10,21,8,24,0.00,0,,29
2011-11-28,80,65,49,23,20,14,32,21,9,30.22,30.14,30.07,10,10,10,13,5,15,0.00,1,,15
2011-11-29,79,67,54,30,22,17,33,22,10,30.14,30.06,30.02,10,10,10,15,5,18,0.00,2,,14
2011-11-30,78,64,50,52,32,24,72,43,14,30.02,29.83,29.60,10,10,10,23,8,26,0.00,1,,105